Decoded Metar for KVNY (VAN NUYS in CA, USA) (IATA:VNY) | Meteo·Mobile Aviation Weather
aviador You're here:

KVNY Decoded Metar

VAN NUYS in CA, USA
Report Time2019-07-24 03:51:00
UTC Time2019-07-24 04:24:47
Flight Rules vfr VFR
Wind100° at 06 kt
W.Decomp.*RWY 16: 1.6 kt HW 5.8 kt LCW
Visibility9999 m
Phenomena:N/A
Clouds:N/A
Expected CloudBase > 7,200 ft AGL from Temp-Dew spread
CeilingNone
Temp31°C (ISA +18)
Dew Point13°C (33% RH)
Heat Index30.0°C
AAT29.7°C
QNH1014 hPa
Density Alt2,982 ft
Elevation804 ft
Report Wrong Elevation
Raw Report
KVNY 240351Z 10006KT 10SM CLR 31/13 A2994 RMK AO2 SLP128
T03110133=

Extra information for KVNY:More info

Metar Taf Metar & Taf Last 4 Metars F.Rules Stats Wind Profile Meteogram Temp Stats Airport Information Weather charts Add Link Nearby VenuesMetar ALERT Operation Metar Decoded Social comments

AIRNAV info for KVNY